createdAt,value
2018-11-26T00:01:30.963Z,42.57
2018-11-26T00:04:01.255Z,38.33
2018-11-26T00:06:32.529Z,39.10
2018-11-26T00:09:02.918Z,35.13
2018-11-26T00:11:35.538Z,42.13
2018-11-26T00:14:06.131Z,35.37
2018-11-26T00:16:36.374Z,38.83
2018-11-26T00:19:07.854Z,39.00
2018-11-26T00:21:38.998Z,36.00
2018-11-26T00:24:10.298Z,32.93
2018-11-26T00:26:41.475Z,32.73
2018-11-26T00:29:12.006Z,31.37
2018-11-26T00:31:42.260Z,27.93
2018-11-26T00:34:12.543Z,30.08
2018-11-26T00:36:43.791Z,30.20
2018-11-26T00:39:14.138Z,31.17
2018-11-26T00:41:44.421Z,36.03
2018-11-26T00:44:14.678Z,31.47
2018-11-26T00:46:44.906Z,33.30
2018-11-26T00:49:15.158Z,27.70
2018-11-26T00:51:45.410Z,30.50
2018-11-26T00:54:15.683Z,30.20
2018-11-26T00:56:46.958Z,27.63
2018-11-26T00:59:17.256Z,28.73
2018-11-26T01:01:47.535Z,32.13
2018-11-26T01:04:17.794Z,31.90
2018-11-26T01:06:48.015Z,36.57
2018-11-26T01:09:18.312Z,36.60
2018-11-26T01:11:49.609Z,33.63
2018-11-26T01:14:20.814Z,32.73
2018-11-26T01:16:52.083Z,36.60
2018-11-26T01:19:22.420Z,33.20
2018-11-26T01:21:52.646Z,37.20
2018-11-26T01:24:23.918Z,32.97
2018-11-26T01:26:54.126Z,32.70
2018-11-26T01:29:24.390Z,33.97
2018-11-26T01:31:54.637Z,33.17
2018-11-26T01:34:24.927Z,35.43
2018-11-26T01:36:55.178Z,35.87
2018-11-26T01:39:25.482Z,34.40
2018-11-26T01:41:55.730Z,39.30
2018-11-26T01:44:26.010Z,46.97
2018-11-26T01:46:56.422Z,44.70
2018-11-26T01:49:27.699Z,47.27
2018-11-26T01:51:58.975Z,38.27
2018-11-26T01:54:30.179Z,45.47
2018-11-26T01:57:00.450Z,45.27
2018-11-26T01:59:30.743Z,46.40
2018-11-26T02:02:02.021Z,38.37
2018-11-26T02:04:32.340Z,38.13
2018-11-26T02:07:02.604Z,36.73
2018-11-26T02:09:33.198Z,39.70
2018-11-26T02:12:03.470Z,38.60
2018-11-26T02:14:34.674Z,36.30
2018-11-26T02:17:05.434Z,36.83
2018-11-26T02:19:36.731Z,41.40
2018-11-26T02:22:07.003Z,39.50
2018-11-26T02:24:37.373Z,40.30
2018-11-26T02:27:07.660Z,40.30
2018-11-26T02:29:38.703Z,42.27
2018-11-26T02:32:09.922Z,38.87
2018-11-26T02:34:42.555Z,38.43
2018-11-26T02:37:12.823Z,38.57
2018-11-26T02:39:43.108Z,34.60
2018-11-26T02:42:14.414Z,41.60
2018-11-26T02:44:44.676Z,40.53
2018-11-26T02:47:14.952Z,45.90
2018-11-26T02:49:45.188Z,44.30
2018-11-26T02:52:16.390Z,44.17
2018-11-26T02:57:08.532Z,41.60
2018-11-26T02:59:39.802Z,45.40
2018-11-26T03:02:10.058Z,45.50
2018-11-26T03:04:41.322Z,42.47
2018-11-26T03:07:12.594Z,38.13
2018-11-26T03:09:42.811Z,33.27
2018-11-26T03:12:13.095Z,33.50
2018-11-26T03:14:43.327Z,31.40
2018-11-26T03:17:14.662Z,36.93
2018-11-26T03:19:54.651Z,32.90
2018-11-26T03:22:24.908Z,36.07
2018-11-26T03:24:55.138Z,31.80
2018-11-26T03:27:26.411Z,38.23
2018-11-26T03:29:56.629Z,33.53
2018-11-26T03:32:27.912Z,35.10
2018-11-26T03:34:59.607Z,33.43
2018-11-26T03:37:30.875Z,35.70
2018-11-26T03:40:02.087Z,43.83
2018-11-26T03:42:32.338Z,37.83
2018-11-26T03:45:02.606Z,35.67
2018-11-26T03:47:33.900Z,30.13
2018-11-26T03:50:04.313Z,37.03
2018-11-26T03:52:34.555Z,34.83
2018-11-26T03:55:06.190Z,37.50
2018-11-26T03:57:36.446Z,35.23
2018-11-26T04:00:10.527Z,40.33
2018-11-26T04:02:40.767Z,44.47
2018-11-26T04:05:11.519Z,41.40
2018-11-26T04:07:42.927Z,35.10
2018-11-26T04:10:14.893Z,49.20
2018-11-26T04:12:46.183Z,43.47
2018-11-26T04:15:16.503Z,33.30
2018-11-26T04:17:47.866Z,33.23
2018-11-26T04:20:19.207Z,32.33
2018-11-26T04:22:49.522Z,36.93
2018-11-26T04:25:19.750Z,34.13
2018-11-26T04:27:50.035Z,33.20
2018-11-26T04:30:20.300Z,32.40
2018-11-26T04:32:52.627Z,31.27
2018-11-26T04:35:23.814Z,40.27
2018-11-26T04:37:55.874Z,35.27
2018-11-26T04:40:27.069Z,35.10
2018-11-26T04:42:58.357Z,30.50
2018-11-26T04:45:28.596Z,32.67
2018-11-26T04:47:58.854Z,31.57
2018-11-26T04:50:30.087Z,32.03
2018-11-26T04:53:02.354Z,35.90
2018-11-26T04:55:33.562Z,31.70
2018-11-26T04:58:03.920Z,27.77
2018-11-26T05:00:35.019Z,29.93
2018-11-26T05:03:05.510Z,35.37
2018-11-26T05:05:36.000Z,33.10
2018-11-26T05:08:06.267Z,31.23
2018-11-26T05:10:36.477Z,34.13
2018-11-26T05:13:07.120Z,30.67
2018-11-26T05:15:37.338Z,34.77
2018-11-26T05:18:07.630Z,36.87
2018-11-26T05:20:37.862Z,37.13
2018-11-26T05:23:08.103Z,30.03
2018-11-26T05:25:38.321Z,31.20
2018-11-26T05:28:08.649Z,30.63
2018-11-26T05:30:38.904Z,36.07
2018-11-26T05:33:09.158Z,34.83
2018-11-26T05:35:40.378Z,36.77
2018-11-26T05:38:10.642Z,31.57
2018-11-26T05:40:40.872Z,30.63
2018-11-26T05:43:11.118Z,31.00
2018-11-26T05:45:41.338Z,28.40
2018-11-26T05:48:11.627Z,29.77
2018-11-26T05:50:41.899Z,31.80
2018-11-26T05:53:12.178Z,26.90
2018-11-26T05:55:42.759Z,36.03
2018-11-26T05:58:13.990Z,29.20
2018-11-26T06:00:45.191Z,33.87
2018-11-26T06:03:15.434Z,36.97
2018-11-26T06:05:45.689Z,42.00
2018-11-26T06:08:16.011Z,41.10
2018-11-26T06:10:47.231Z,47.20
2018-11-26T06:13:17.478Z,38.80
2018-11-26T06:15:47.721Z,51.97
2018-11-26T06:18:19.011Z,108.60
2018-11-26T06:20:51.250Z,97.57
2018-11-26T06:23:21.510Z,117.73
2018-11-26T06:25:51.739Z,125.63
2018-11-26T06:28:22.037Z,84.83
2018-11-26T06:30:52.340Z,92.43
2018-11-26T06:33:22.631Z,131.33
2018-11-26T06:35:59.522Z,154.10
2018-11-26T06:38:29.775Z,135.03
2018-11-26T06:41:00.058Z,150.67
2018-11-26T06:43:30.301Z,172.40
2018-11-26T06:46:02.276Z,79.63
2018-11-26T06:48:32.527Z,50.97
2018-11-26T06:51:02.759Z,84.27
2018-11-26T06:53:34.258Z,77.43
2018-11-26T06:56:05.893Z,104.70
2018-11-26T06:58:37.154Z,134.53
2018-11-26T07:01:07.456Z,152.57
2018-11-26T07:03:38.719Z,126.67
2018-11-26T07:06:09.046Z,79.50
2018-11-26T07:08:39.316Z,105.77
2018-11-26T07:11:09.542Z,83.93
2018-11-26T07:13:39.790Z,99.03
2018-11-26T07:16:10.030Z,166.07
2018-11-26T07:18:40.304Z,105.23
2018-11-26T07:21:10.807Z,91.03
2018-11-26T07:23:41.062Z,88.77
2018-11-26T07:26:11.306Z,109.27
2018-11-26T07:28:41.638Z,119.10
2018-11-26T07:31:11.883Z,110.57
2018-11-26T07:33:42.208Z,161.67
2018-11-26T07:36:12.434Z,104.17
2018-11-26T07:38:42.754Z,129.73
2018-11-26T07:41:14.347Z,89.80
2018-11-26T07:43:44.570Z,82.97
2018-11-26T07:46:17.165Z,84.90
2018-11-26T07:48:48.338Z,62.97
2018-11-26T07:51:18.623Z,53.03
2018-11-26T07:53:49.790Z,83.27
2018-11-26T07:56:20.374Z,67.77
2018-11-26T07:58:51.631Z,64.53
2018-11-26T08:01:23.850Z,79.07
2018-11-26T08:03:54.075Z,61.80
2018-11-26T08:06:24.342Z,54.40
2018-11-26T08:08:54.980Z,48.50
2018-11-26T08:11:25.190Z,61.77
2018-11-26T08:13:55.446Z,61.03
2018-11-26T08:16:25.698Z,59.33
2018-11-26T08:18:57.266Z,49.67
2018-11-26T08:21:28.439Z,59.83
2018-11-26T08:23:58.756Z,50.77
2018-11-26T08:26:29.011Z,43.90
2018-11-26T08:29:00.265Z,36.17
2018-11-26T08:31:30.512Z,28.73
2018-11-26T08:34:00.784Z,30.20
2018-11-26T08:36:34.067Z,37.33
2018-11-26T08:39:09.478Z,24.73
2018-11-26T08:41:44.467Z,36.57
2018-11-26T08:44:18.886Z,39.87
2018-11-26T08:46:53.265Z,41.40
2018-11-26T08:49:26.786Z,40.30
2018-11-26T08:51:57.946Z,30.37
2018-11-26T08:54:28.224Z,44.20
2018-11-26T08:56:59.460Z,62.30
2018-11-26T08:59:29.726Z,61.73
2018-11-26T09:02:01.026Z,31.17
2018-11-26T09:04:32.227Z,37.77
2018-11-26T09:07:02.448Z,45.77
2018-11-26T09:09:32.902Z,37.23
2018-11-26T09:12:02.957Z,48.17
2018-11-26T09:14:33.349Z,53.63
2018-11-26T09:17:03.576Z,72.17
2018-11-26T09:19:34.970Z,80.27
2018-11-26T09:22:05.566Z,41.50
2018-11-26T09:24:35.939Z,33.50
2018-11-26T09:27:09.972Z,26.67
2018-11-26T09:29:37.496Z,27.33
2018-11-26T09:32:07.778Z,28.27
2018-11-26T09:34:38.022Z,28.87
2018-11-26T09:37:08.259Z,50.23
2018-11-26T09:39:39.506Z,59.07
2018-11-26T09:42:10.755Z,66.13
2018-11-26T09:44:41.291Z,31.77
2018-11-26T09:47:11.549Z,28.83
2018-11-26T09:49:41.801Z,45.67
2018-11-26T09:52:13.118Z,61.80
2018-11-26T09:54:43.436Z,38.47
2018-11-26T09:57:13.730Z,66.80
2018-11-26T09:59:43.990Z,55.97
2018-11-26T10:02:14.238Z,36.93
2018-11-26T10:04:44.490Z,22.83
2018-11-26T10:07:14.711Z,21.70
2018-11-26T10:09:44.959Z,21.60
2018-11-26T10:12:15.169Z,19.13
2018-11-26T10:14:46.406Z,18.53
2018-11-26T10:17:17.758Z,19.47
2018-11-26T10:19:49.580Z,16.17
2018-11-26T10:22:19.791Z,18.37
2018-11-26T10:24:50.274Z,14.83
2018-11-26T10:27:21.338Z,16.87
2018-11-26T10:29:51.630Z,17.17
2018-11-26T10:32:22.882Z,17.40
2018-11-26T10:34:55.097Z,31.03
2018-11-26T10:37:25.363Z,16.23
2018-11-26T10:39:55.606Z,15.20
2018-11-26T10:42:25.850Z,18.60
2018-11-26T10:44:56.098Z,36.10
2018-11-26T10:47:26.308Z,46.27
2018-11-26T10:49:56.614Z,28.27
2018-11-26T10:52:26.819Z,38.13
2018-11-26T10:54:57.102Z,45.17
2018-11-26T10:57:27.898Z,14.33
2018-11-26T10:59:59.687Z,22.77
2018-11-26T11:02:34.560Z,35.67
2018-11-26T11:05:05.799Z,53.27
2018-11-26T11:07:36.047Z,33.30
2018-11-26T11:10:09.557Z,20.30
2018-11-26T11:12:40.808Z,73.33
2018-11-26T11:15:12.354Z,66.43
2018-11-26T11:17:43.633Z,32.93
2018-11-26T11:20:30.050Z,10.57
2018-11-26T11:23:00.316Z,15.87
2018-11-26T11:25:30.539Z,18.33
2018-11-26T11:28:00.826Z,16.73
2018-11-26T11:30:31.455Z,15.03
2018-11-26T11:35:30.991Z,64.53
2018-11-26T11:38:02.351Z,59.03
2018-11-26T11:40:33.631Z,49.60
2018-11-26T11:43:03.892Z,66.90
2018-11-26T11:45:34.605Z,19.70
2018-11-26T11:48:05.521Z,22.50
2018-11-26T11:50:35.836Z,57.43
2018-11-26T11:53:06.995Z,70.63
2018-11-26T11:55:37.254Z,119.77
2018-11-26T11:58:07.535Z,38.17
2018-11-26T12:00:39.932Z,41.70
2018-11-26T12:03:13.299Z,56.83
2018-11-26T12:05:43.566Z,20.53
2018-11-26T12:08:13.868Z,12.13
2018-11-26T12:10:44.138Z,15.03
2018-11-26T12:13:15.209Z,28.43
2018-11-26T12:15:51.924Z,12.30
2018-11-26T12:18:22.179Z,10.57
2018-11-26T12:20:52.443Z,9.13
2018-11-26T12:23:22.692Z,18.80
2018-11-26T12:25:52.939Z,16.17
2018-11-26T12:28:23.143Z,25.77
2018-11-26T12:30:53.948Z,37.60
2018-11-26T12:33:24.191Z,68.73
2018-11-26T12:35:54.470Z,45.37
2018-11-26T12:38:24.747Z,37.78
2018-11-26T12:40:56.004Z,54.50
2018-11-26T12:43:27.191Z,88.20
2018-11-26T12:45:57.455Z,105.78
2018-11-26T12:48:27.889Z,12.25
2018-11-26T12:50:58.159Z,12.85
2018-11-26T12:53:28.480Z,14.13
2018-11-26T12:55:59.752Z,29.57
2018-11-26T12:58:29.944Z,14.40
2018-11-26T13:01:18.047Z,23.23
2018-11-26T13:04:00.685Z,38.07
2018-11-26T13:06:52.027Z,69.80
2018-11-26T13:09:23.268Z,69.43
2018-11-26T13:11:53.565Z,22.30
2018-11-26T13:14:23.809Z,16.23
2018-11-26T13:16:54.152Z,15.97
2018-11-26T13:19:26.199Z,49.43
2018-11-26T13:21:56.547Z,45.33
2018-11-26T13:24:26.812Z,74.77
2018-11-26T13:26:57.143Z,53.00
2018-11-26T13:29:27.440Z,27.82
2018-11-26T13:31:57.728Z,32.73
2018-11-26T13:34:28.043Z,26.90
2018-11-26T13:36:58.307Z,30.20
2018-11-26T13:39:29.576Z,34.10
2018-11-26T13:42:01.840Z,35.10
2018-11-26T13:44:33.087Z,39.03
2018-11-26T13:47:03.444Z,26.10
2018-11-26T13:49:33.661Z,18.67
2018-11-26T13:52:04.191Z,21.33
2018-11-26T13:54:34.463Z,27.77
2018-11-26T13:57:05.450Z,53.97
2018-11-26T13:59:35.703Z,65.00
2018-11-26T14:02:07.072Z,59.03
2018-11-26T14:04:37.316Z,48.27
2018-11-26T14:07:07.572Z,37.70
2018-11-26T14:09:37.787Z,24.13
2018-11-26T14:12:08.104Z,25.73
2018-11-26T14:14:38.436Z,25.20
2018-11-26T14:17:08.722Z,25.17
2018-11-26T14:19:39.071Z,26.97
2018-11-26T14:22:09.332Z,22.50
2018-11-26T14:24:39.600Z,19.70
2018-11-26T14:27:10.952Z,25.20
2018-11-26T14:29:42.792Z,25.43
2018-11-26T14:32:14.141Z,26.23
2018-11-26T14:34:45.404Z,28.43
2018-11-26T14:37:15.692Z,26.37
2018-11-26T14:39:47.072Z,21.87
2018-11-26T14:42:17.348Z,20.53
2018-11-26T14:44:47.567Z,21.10
2018-11-26T14:47:17.820Z,18.03
2018-11-26T14:49:48.042Z,14.87
2018-11-26T14:52:18.407Z,15.43
2018-11-26T14:54:50.535Z,16.60
2018-11-26T14:57:20.813Z,20.50
2018-11-26T14:59:51.063Z,13.20
2018-11-26T15:02:21.492Z,13.73
2018-11-26T15:04:51.825Z,10.33
2018-11-26T15:07:22.083Z,13.47
2018-11-26T15:09:52.390Z,11.60
2018-11-26T15:12:22.660Z,14.40
2018-11-26T15:14:53.966Z,20.73
2018-11-26T15:17:25.257Z,11.80
2018-11-26T15:19:56.444Z,12.13
2018-11-26T15:22:27.787Z,11.63
2018-11-26T15:24:59.792Z,12.53
2018-11-26T15:27:30.440Z,13.30
2018-11-26T15:30:00.750Z,12.07
2018-11-26T15:32:32.006Z,10.13
2018-11-26T15:35:02.294Z,10.20
2018-11-26T15:37:32.572Z,17.77
2018-11-26T15:40:02.825Z,13.90
2018-11-26T15:42:33.098Z,21.30
2018-11-26T15:45:03.465Z,18.03
2018-11-26T15:47:34.346Z,15.10
2018-11-26T15:50:05.772Z,15.27
2018-11-26T15:52:36.160Z,12.90
2018-11-26T15:55:12.968Z,11.63
2018-11-26T15:57:44.259Z,11.03
2018-11-26T16:00:19.239Z,9.03
2018-11-26T16:02:49.672Z,10.40
2018-11-26T16:05:25.931Z,10.43
2018-11-26T16:08:08.225Z,9.83
2018-11-26T16:10:38.511Z,14.07
2018-11-26T16:13:09.933Z,11.17
2018-11-26T16:15:42.300Z,11.27
2018-11-26T16:18:16.336Z,10.67
2018-11-26T16:20:46.634Z,34.90
2018-11-26T16:23:16.940Z,23.67
2018-11-26T16:25:48.123Z,16.73
2018-11-26T16:28:22.847Z,12.00
2018-11-26T16:30:53.132Z,29.57
2018-11-26T16:33:24.603Z,22.77
2018-11-26T16:35:54.869Z,20.50
2018-11-26T16:38:25.340Z,15.47
2018-11-26T16:40:55.553Z,22.13
2018-11-26T16:43:25.825Z,18.43
2018-11-26T16:45:56.317Z,16.70
2018-11-26T16:48:26.639Z,12.83
2018-11-26T16:50:58.659Z,11.40
2018-11-26T16:53:28.983Z,12.83
2018-11-26T16:55:59.244Z,11.20
2018-11-26T16:58:30.561Z,21.67
2018-11-26T17:01:02.845Z,45.57
2018-11-26T17:03:33.132Z,33.23
2018-11-26T17:06:04.441Z,27.23
2018-11-26T17:08:34.739Z,15.47
2018-11-26T17:11:05.506Z,10.97
2018-11-26T17:13:35.826Z,11.87
2018-11-26T17:16:06.164Z,9.77
2018-11-26T17:18:36.467Z,8.77
2018-11-26T17:21:07.195Z,8.20
2018-11-26T17:23:37.535Z,79.73
2018-11-26T17:26:07.836Z,44.97
2018-11-26T17:28:39.211Z,52.30
2018-11-26T17:31:09.477Z,18.27
2018-11-26T17:33:39.799Z,9.97
2018-11-26T17:36:10.052Z,49.63
2018-11-26T17:38:40.304Z,20.73
2018-11-26T17:41:11.617Z,10.07
2018-11-26T17:43:43.001Z,9.67
2018-11-26T17:46:13.429Z,35.57
2018-11-26T17:48:43.902Z,24.03
2018-11-26T17:51:14.184Z,19.73
2018-11-26T17:53:44.449Z,33.03
2018-11-26T17:56:14.700Z,187.87
2018-11-26T17:58:45.023Z,239.87
2018-11-26T18:01:18.719Z,185.43
2018-11-26T18:03:49.014Z,211.67
2018-11-26T18:06:19.327Z,199.33
2018-11-26T18:08:49.611Z,207.93
2018-11-26T18:11:19.848Z,303.93
2018-11-26T18:13:52.172Z,349.03
2018-11-26T18:16:23.468Z,274.07
2018-11-26T18:18:53.759Z,288.83
2018-11-26T18:21:24.100Z,351.93
2018-11-26T18:23:54.846Z,318.23
2018-11-26T18:26:25.316Z,358.73
2018-11-26T18:28:55.779Z,341.03
2018-11-26T18:31:26.142Z,266.70
2018-11-26T18:33:56.457Z,237.00
2018-11-26T18:36:26.766Z,252.27
2018-11-26T18:38:57.073Z,209.20
2018-11-26T18:41:27.712Z,171.37
2018-11-26T18:43:58.082Z,121.30
2018-11-26T18:46:28.330Z,62.03
2018-11-26T18:48:58.658Z,42.47
2018-11-26T18:51:28.932Z,34.23
2018-11-26T18:53:59.199Z,51.57
2018-11-26T18:56:29.450Z,72.77
2018-11-26T18:58:59.770Z,177.23
2018-11-26T19:01:30.152Z,111.57
2018-11-26T19:04:00.440Z,130.67
2018-11-26T19:06:31.737Z,95.63
2018-11-26T19:09:02.044Z,133.80
2018-11-26T19:11:32.316Z,473.63
2018-11-26T19:14:07.363Z,267.90
2018-11-26T19:16:41.197Z,163.97
2018-11-26T19:19:13.470Z,162.53
2018-11-26T19:21:43.718Z,128.90
2018-11-26T19:24:14.041Z,101.73
2018-11-26T19:26:45.313Z,54.83
2018-11-26T19:29:16.648Z,74.73
2018-11-26T19:31:46.880Z,70.73
2018-11-26T19:34:17.202Z,75.50
2018-11-26T19:36:47.498Z,108.40
2018-11-26T19:39:18.162Z,115.20
2018-11-26T19:41:48.436Z,109.73
2018-11-26T19:44:26.811Z,92.47
2018-11-26T19:46:57.288Z,96.37
2018-11-26T19:49:27.654Z,187.03
2018-11-26T19:51:59.008Z,185.50
2018-11-26T19:54:30.344Z,853.70
2018-11-26T19:57:01.553Z,389.67
2018-11-26T19:59:31.868Z,159.50
2018-11-26T20:02:03.148Z,90.80
2018-11-26T20:04:59.796Z,152.00
2018-11-26T20:07:30.224Z,195.10
2018-11-26T20:10:00.503Z,334.77
2018-11-26T20:12:31.001Z,180.40
2018-11-26T20:15:01.309Z,69.67
2018-11-26T20:17:31.588Z,83.03
2018-11-26T20:20:01.908Z,101.70
2018-11-26T20:22:32.190Z,82.23
2018-11-26T20:25:03.515Z,49.93
2018-11-26T20:27:34.719Z,47.80
2018-11-26T20:30:06.065Z,80.00
2018-11-26T20:32:36.519Z,42.33
2018-11-26T20:35:08.760Z,79.00
2018-11-26T20:37:39.400Z,81.37
2018-11-26T20:40:12.220Z,72.13
2018-11-26T20:42:45.726Z,51.67
2018-11-26T20:45:16.628Z,72.43
2018-11-26T20:47:48.792Z,64.10
2018-11-26T20:50:22.469Z,83.93
2018-11-26T20:52:52.928Z,71.17
2018-11-26T20:55:25.297Z,67.23
2018-11-26T20:57:56.593Z,98.67
2018-11-26T21:00:28.771Z,59.13
2018-11-26T21:03:05.315Z,69.17
2018-11-26T21:05:35.601Z,64.07
2018-11-26T21:08:06.185Z,67.97
2018-11-26T21:10:36.668Z,60.63
2018-11-26T21:13:07.064Z,57.50
2018-11-26T21:15:37.336Z,47.60
2018-11-26T21:18:09.225Z,49.67
2018-11-26T21:20:47.379Z,43.93
2018-11-26T21:23:21.103Z,48.53
2018-11-26T21:25:52.460Z,55.03
2018-11-26T21:28:23.780Z,58.30
2018-11-26T21:30:55.064Z,62.57
2018-11-26T21:33:26.376Z,47.20
2018-11-26T21:35:56.663Z,49.23
2018-11-26T21:38:26.936Z,47.13
2018-11-26T21:40:57.204Z,48.10
2018-11-26T21:43:27.441Z,44.13
2018-11-26T21:46:01.265Z,43.47
2018-11-26T21:48:31.536Z,46.07
2018-11-26T21:51:01.810Z,43.13
2018-11-26T21:53:32.040Z,46.47
2018-11-26T21:56:03.505Z,41.03
2018-11-26T21:58:34.711Z,41.63
2018-11-26T22:01:07.692Z,41.97
2018-11-26T22:03:39.910Z,40.90
2018-11-26T22:06:10.203Z,31.93
2018-11-26T22:08:40.451Z,39.60
2018-11-26T22:11:11.701Z,38.93
2018-11-26T22:13:42.919Z,35.70
2018-11-26T22:16:13.220Z,32.17
2018-11-26T22:18:45.053Z,36.03
2018-11-26T22:21:16.316Z,34.50
2018-11-26T22:23:47.533Z,32.90
2018-11-26T22:26:18.828Z,38.23
2018-11-26T22:28:50.052Z,29.83
2018-11-26T22:31:22.256Z,26.70
2018-11-26T22:33:52.583Z,29.60
2018-11-26T22:36:23.819Z,43.43
2018-11-26T22:38:54.031Z,35.00
2018-11-26T22:41:25.312Z,38.90
2018-11-26T22:43:56.254Z,29.90
2018-11-26T22:46:30.381Z,27.30
2018-11-26T22:49:01.036Z,27.17
2018-11-26T22:51:31.329Z,31.90
2018-11-26T22:54:01.577Z,32.97
2018-11-26T22:56:31.835Z,27.93
2018-11-26T22:59:02.074Z,31.73
2018-11-26T23:01:33.352Z,34.13
2018-11-26T23:04:05.149Z,34.63
2018-11-26T23:06:35.440Z,38.93
2018-11-26T23:09:08.343Z,32.67
2018-11-26T23:11:38.638Z,35.17
2018-11-26T23:14:08.907Z,29.20
2018-11-26T23:16:39.181Z,36.50
2018-11-26T23:19:09.408Z,38.80
2018-11-26T23:21:39.664Z,37.27
2018-11-26T23:24:10.979Z,29.75
2018-11-26T23:26:41.256Z,23.40
2018-11-26T23:29:11.509Z,25.63
2018-11-26T23:31:42.807Z,27.03
2018-11-26T23:34:13.043Z,30.80
2018-11-26T23:36:43.390Z,33.40
2018-11-26T23:39:13.640Z,40.03
2018-11-26T23:41:43.900Z,31.50
2018-11-26T23:44:14.173Z,27.83
2018-11-26T23:46:44.445Z,27.37
2018-11-26T23:49:14.671Z,28.07
2018-11-26T23:51:44.937Z,25.30
2018-11-26T23:54:15.168Z,24.00
2018-11-26T23:56:45.471Z,22.70
2018-11-26T23:59:15.715Z,26.50
